Time;durP1;ratioP1;P1;durP2;ratioP2;P2;SDS_P1;SDS_P2;PMS_P1;PMS_P2;Temp;Humidity;BMP_temperature;BMP_pressure;BME280_temperature;BME280_humidity;BME280_pressure;Samples;Min_cycle;Max_cycle;Signal;HPM_P1;HPM_P2
2022/10/15 00:01:16;;;;;;;37.40;23.10;;;18.00;60.00;;;;;;5012394;28;20562;-87
2022/10/15 00:03:43;;;;;;;38.17;22.20;;;18.00;59.70;;;;;;4993965;28;20117;-89
2022/10/15 00:06:12;;;;;;;40.83;24.92;;;18.00;59.00;;;;;;4998977;28;20588;-88
2022/10/15 00:08:39;;;;;;;38.05;23.42;;;17.90;59.30;;;;;;5008090;28;20116;-89
2022/10/15 00:11:16;;;;;;;40.10;24.75;;;17.80;59.80;;;;;;5016114;28;20029;-88
2022/10/15 00:13:43;;;;;;;44.28;27.00;;;17.60;59.90;;;;;;5007982;28;20112;-88
2022/10/15 00:16:15;;;;;;;40.42;25.00;;;17.70;60.80;;;;;;5015652;28;20033;-87
2022/10/15 00:18:41;;;;;;;38.17;22.90;;;17.70;61.00;;;;;;5036189;28;20034;-88
2022/10/15 00:21:09;;;;;;;48.13;26.90;;;17.80;60.20;;;;;;5027476;28;20037;-88
2022/10/15 00:23:36;;;;;;;41.92;26.25;;;17.80;61.00;;;;;;4999599;28;20033;-87
2022/10/15 00:26:13;;;;;;;44.55;26.90;;;17.90;60.70;;;;;;4999814;28;20030;-87
2022/10/15 00:28:38;;;;;;;45.17;27.10;;;17.60;62.30;;;;;;5025619;28;20044;-87
2022/10/15 00:31:11;;;;;;;44.53;26.38;;;17.50;61.70;;;;;;5007974;28;20373;-88
2022/10/15 00:33:38;;;;;;;43.20;24.83;;;17.60;60.70;;;;;;4999493;28;20037;-84
2022/10/15 00:36:06;;;;;;;46.42;26.23;;;17.80;60.30;;;;;;4996416;28;20038;-89
2022/10/15 00:38:33;;;;;;;53.15;29.67;;;17.70;62.00;;;;;;5009729;28;20022;-88
2022/10/15 00:40:59;;;;;;;44.28;25.70;;;17.80;61.50;;;;;;5030274;28;20030;-89
2022/10/15 00:43:39;;;;;;;39.45;23.75;;;17.90;60.20;;;;;;5015904;28;20029;-87
2022/10/15 00:46:38;;;;;;;34.67;23.27;;;17.70;61.20;;;;;;5015897;28;20026;-87
2022/10/15 00:49:12;;;;;;;46.67;26.27;;;17.30;64.00;;;;;;5015862;28;20021;-87
2022/10/15 00:51:45;;;;;;;38.90;25.23;;;17.40;63.00;;;;;;5008768;28;20049;-88
2022/10/15 00:54:13;;;;;;;41.22;26.52;;;17.50;62.50;;;;;;5031328;28;20021;-88
2022/10/15 00:56:40;;;;;;;42.38;25.55;;;17.70;61.50;;;;;;5015276;28;20427;-88
2022/10/15 00:59:07;;;;;;;34.10;22.30;;;17.30;62.90;;;;;;5015704;28;20022;-86
2022/10/15 01:01:33;;;;;;;43.15;25.52;;;17.10;62.30;;;;;;5014877;28;20037;-87
2022/10/15 01:04:01;;;;;;;36.17;23.50;;;17.00;63.10;;;;;;5013111;28;20116;-87
2022/10/15 01:06:27;;;;;;;39.80;23.30;;;17.10;62.60;;;;;;5014989;28;20034;-87
2022/10/15 01:08:53;;;;;;;40.95;25.35;;;17.10;61.70;;;;;;5015133;28;20088;-89
2022/10/15 01:11:43;;;;;;;36.35;23.48;;;17.30;60.80;;;;;;5015198;28;20018;-83
2022/10/15 01:14:55;;;;;;;46.10;26.67;;;16.60;63.70;;;;;;4982557;28;20026;-87
2022/10/15 01:17:21;;;;;;;38.88;24.50;;;16.20;65.20;;;;;;4971184;28;20057;-88
2022/10/15 01:20:10;;;;;;;40.88;24.50;;;16.50;64.60;;;;;;4974601;28;20027;-88
2022/10/15 01:22:45;;;;;;;43.15;25.88;;;16.80;63.50;;;;;;4958845;28;20449;-87
2022/10/15 01:25:29;;;;;;;40.40;24.60;;;16.90;63.20;;;;;;4958695;28;20149;-87
2022/10/15 01:28:05;;;;;;;41.40;24.30;;;17.10;62.80;;;;;;4955812;29;20438;-88
2022/10/15 01:30:48;;;;;;;39.10;24.33;;;16.80;63.90;;;;;;4968700;28;20039;-87
2022/10/15 01:33:21;;;;;;;42.25;24.70;;;17.00;63.00;;;;;;4958177;28;20117;-87
2022/10/15 01:35:53;;;;;;;39.63;23.55;;;17.30;62.00;;;;;;4958753;28;20034;-88
2022/10/15 01:38:44;;;;;;;37.85;22.88;;;17.50;60.80;;;;;;4958562;28;20102;-87
2022/10/15 01:41:17;;;;;;;44.45;24.83;;;17.40;62.20;;;;;;4974418;28;20121;-87
2022/10/15 01:43:55;;;;;;;36.00;21.95;;;17.20;61.30;;;;;;4958483;28;20445;-87
2022/10/15 01:46:36;;;;;;;53.33;26.70;;;17.10;61.90;;;;;;4974183;28;20121;-87
2022/10/15 01:49:04;;;;;;;37.95;23.30;;;17.30;61.00;;;;;;4958474;28;20031;-85
2022/10/15 01:51:34;;;;;;;41.38;24.55;;;17.60;60.30;;;;;;4957952;28;20030;-87
2022/10/15 01:54:01;;;;;;;38.28;23.80;;;17.60;60.80;;;;;;4986674;28;20492;-88
2022/10/15 01:56:27;;;;;;;34.60;22.17;;;17.50;60.30;;;;;;4994981;28;20030;-88
2022/10/15 01:58:55;;;;;;;33.40;22.77;;;17.60;60.00;;;;;;5000403;28;20083;-89
2022/10/15 02:01:21;;;;;;;38.20;23.83;;;17.50;60.40;;;;;;5017780;28;20056;-85
2022/10/15 02:03:49;;;;;;;35.92;22.15;;;17.40;60.00;;;;;;5015281;28;20026;-87
2022/10/15 02:06:41;;;;;;;35.88;22.40;;;17.50;59.60;;;;;;5012003;28;20117;-85
2022/10/15 02:09:29;;;;;;;36.78;22.15;;;17.40;60.00;;;;;;4990535;28;20028;-86
2022/10/15 02:12:26;;;;;;;36.33;23.10;;;17.30;60.30;;;;;;5028855;28;20491;-88
2022/10/15 02:15:09;;;;;;;39.95;23.75;;;17.40;60.00;;;;;;4991058;28;20042;-87
2022/10/15 02:18:01;;;;;;;36.42;23.23;;;17.50;59.60;;;;;;4990734;28;20105;-86
2022/10/15 02:20:52;;;;;;;33.92;21.45;;;17.40;59.80;;;;;;4975832;28;20391;-85
2022/10/15 02:23:35;;;;;;;47.42;25.75;;;17.20;59.90;;;;;;4994044;28;20393;-87
2022/10/15 02:26:05;;;;;;;38.97;23.60;;;16.80;61.60;;;;;;4993573;28;20038;-87
2022/10/15 02:28:34;;;;;;;38.25;23.02;;;16.90;60.60;;;;;;4990685;28;20031;-87
2022/10/15 02:31:02;;;;;;;37.20;23.67;;;17.20;59.80;;;;;;4979861;28;20097;-88
2022/10/15 02:33:30;;;;;;;38.90;23.65;;;17.20;60.80;;;;;;5000562;28;20105;-85
2022/10/15 02:35:57;;;;;;;37.85;22.70;;;17.10;60.60;;;;;;4993714;28;20027;-87
2022/10/15 02:38:26;;;;;;;42.97;24.98;;;17.20;60.50;;;;;;5001570;28;20026;-87
2022/10/15 02:40:53;;;;;;;38.88;23.23;;;17.00;61.00;;;;;;5001577;28;20034;-88
2022/10/15 02:43:20;;;;;;;42.50;25.02;;;16.90;60.80;;;;;;4994016;28;20116;-87
2022/10/15 02:45:47;;;;;;;38.45;23.40;;;17.00;60.50;;;;;;5006540;28;20537;-86
2022/10/15 02:48:12;;;;;;;36.08;22.50;;;17.00;60.10;;;;;;4988181;28;20088;-87
2022/10/15 02:50:38;;;;;;;41.45;24.70;;;17.00;59.70;;;;;;4993316;28;20113;-87
2022/10/15 02:53:04;;;;;;;42.92;26.33;;;16.90;59.90;;;;;;4991245;28;20500;-86
2022/10/15 02:55:30;;;;;;;52.75;29.20;;;16.90;59.90;;;;;;4986114;28;20461;-85
2022/10/15 02:57:55;;;;;;;46.80;26.52;;;17.00;60.30;;;;;;5009694;28;20121;-86
2022/10/15 03:00:21;;;;;;;47.30;28.02;;;17.10;60.80;;;;;;4994358;28;20034;-84
2022/10/15 03:02:47;;;;;;;42.25;25.02;;;17.30;61.10;;;;;;4995710;28;20030;-87
2022/10/15 03:05:13;;;;;;;44.80;26.27;;;17.00;61.80;;;;;;5018405;28;20061;-86
2022/10/15 03:07:38;;;;;;;41.53;25.17;;;16.80;63.00;;;;;;5012946;28;20030;-84
2022/10/15 03:10:04;;;;;;;44.42;25.55;;;16.60;63.40;;;;;;5013072;28;20496;-84
2022/10/15 03:12:30;;;;;;;66.68;31.02;;;16.60;62.90;;;;;;5013101;28;20370;-87
2022/10/15 03:14:56;;;;;;;68.05;34.67;;;16.80;62.30;;;;;;5002969;28;20022;-86
2022/10/15 03:17:22;;;;;;;53.80;30.27;;;17.00;61.70;;;;;;5012429;28;20054;-85
2022/10/15 03:19:50;;;;;;;54.45;29.80;;;17.30;60.70;;;;;;4993958;28;20070;-85
2022/10/15 03:22:15;;;;;;;44.63;27.70;;;17.40;60.50;;;;;;4996005;28;20047;-85
2022/10/15 03:24:41;;;;;;;62.30;35.22;;;17.50;60.00;;;;;;4982513;28;20026;-85
2022/10/15 03:27:07;;;;;;;50.92;30.55;;;17.20;60.30;;;;;;4995055;28;20034;-85
2022/10/15 03:29:32;;;;;;;51.78;26.17;;;17.30;60.20;;;;;;4993600;28;20038;-86
2022/10/15 03:31:58;;;;;;;49.03;27.83;;;17.10;60.20;;;;;;5000167;28;20025;-86
2022/10/15 03:34:24;;;;;;;44.17;25.85;;;17.20;59.90;;;;;;5010935;28;20133;-85
2022/10/15 03:36:50;;;;;;;40.03;25.55;;;17.10;59.90;;;;;;4992780;28;20072;-85
2022/10/15 03:39:15;;;;;;;43.20;25.77;;;17.10;59.80;;;;;;4993942;28;20114;-84
2022/10/15 03:41:41;;;;;;;44.15;25.98;;;17.00;60.40;;;;;;4994197;28;20113;-85
2022/10/15 03:44:07;;;;;;;48.58;27.83;;;17.10;60.40;;;;;;4997684;28;20470;-86
2022/10/15 03:46:33;;;;;;;41.58;26.05;;;17.20;60.20;;;;;;4999522;28;20095;-85
2022/10/15 03:48:59;;;;;;;52.40;27.33;;;17.10;60.20;;;;;;5015888;28;20026;-85
2022/10/15 03:51:26;;;;;;;48.70;26.83;;;16.90;60.60;;;;;;5030623;28;20072;-86
2022/10/15 03:53:52;;;;;;;48.22;26.60;;;17.00;60.50;;;;;;5003857;28;20034;-86
2022/10/15 03:56:18;;;;;;;47.33;26.63;;;17.10;60.20;;;;;;5008193;28;20034;-84
2022/10/15 03:58:44;;;;;;;58.20;28.85;;;17.30;59.70;;;;;;5003866;28;20041;-86
2022/10/15 04:01:11;;;;;;;64.40;31.10;;;17.30;59.90;;;;;;4991055;28;20512;-84
2022/10/15 04:03:37;;;;;;;51.40;27.80;;;17.30;59.70;;;;;;5001355;28;20061;-85
2022/10/15 04:06:03;;;;;;;53.17;29.17;;;17.40;59.60;;;;;;4995845;28;20411;-84
2022/10/15 04:08:29;;;;;;;50.55;26.98;;;17.50;59.30;;;;;;4996279;28;20050;-85
2022/10/15 04:10:54;;;;;;;49.55;28.48;;;17.50;59.20;;;;;;4991996;28;20385;-83
2022/10/15 04:13:20;;;;;;;53.70;29.27;;;17.50;58.90;;;;;;4995520;28;20054;-83
2022/10/15 04:15:46;;;;;;;52.17;27.38;;;17.40;59.30;;;;;;4980838;28;20439;-83
2022/10/15 04:18:12;;;;;;;56.63;29.13;;;17.50;59.10;;;;;;4980382;28;20043;-85
2022/10/15 04:20:37;;;;;;;57.17;28.63;;;17.50;58.80;;;;;;5014916;28;20026;-83
2022/10/15 04:23:03;;;;;;;54.20;27.63;;;17.50;58.20;;;;;;5000073;28;20441;-83
2022/10/15 04:25:29;;;;;;;54.58;28.20;;;17.20;58.70;;;;;;5013950;28;20031;-83
2022/10/15 04:27:55;;;;;;;70.03;30.55;;;17.10;58.90;;;;;;4998877;28;20081;-82
2022/10/15 04:30:20;;;;;;;58.85;29.42;;;17.10;59.10;;;;;;5015471;28;20475;-84
2022/10/15 04:32:46;;;;;;;85.50;39.08;;;16.90;60.00;;;;;;5014429;28;20031;-82
2022/10/15 04:35:12;;;;;;;82.97;39.40;;;16.80;60.00;;;;;;4999362;28;20090;-82
2022/10/15 04:37:37;;;;;;;60.30;31.77;;;16.70;60.30;;;;;;5028773;28;20040;-84
2022/10/15 04:40:04;;;;;;;69.28;35.10;;;16.60;60.80;;;;;;5018305;28;20037;-81
2022/10/15 04:42:30;;;;;;;70.57;34.35;;;16.70;60.20;;;;;;4994567;28;20057;-82
2022/10/15 04:44:56;;;;;;;68.57;35.67;;;16.80;60.00;;;;;;4997901;28;20021;-82
2022/10/15 04:47:22;;;;;;;61.60;33.58;;;16.50;61.40;;;;;;4994876;28;20393;-82
2022/10/15 04:49:48;;;;;;;68.13;34.40;;;16.70;60.50;;;;;;4998266;28;20026;-82
2022/10/15 04:52:14;;;;;;;70.38;35.50;;;16.70;59.80;;;;;;4999207;28;20057;-83
2022/10/15 04:54:39;;;;;;;64.57;35.67;;;16.90;59.50;;;;;;4995729;28;20031;-82
2022/10/15 04:57:05;;;;;;;58.97;31.20;;;16.90;59.70;;;;;;4992986;28;20465;-82
2022/10/15 04:59:31;;;;;;;61.55;29.27;;;16.80;59.50;;;;;;4994462;28;20112;-83
2022/10/15 05:01:57;;;;;;;67.10;31.90;;;16.80;59.00;;;;;;5012740;28;20045;-83
2022/10/15 05:04:23;;;;;;;69.90;32.42;;;16.90;58.90;;;;;;4990102;28;20046;-82
2022/10/15 05:06:48;;;;;;;84.50;35.78;;;17.00;58.90;;;;;;5010155;28;20033;-84
2022/10/15 05:09:14;;;;;;;80.80;37.53;;;17.10;58.70;;;;;;5011023;28;20026;-84
2022/10/15 05:11:40;;;;;;;89.68;37.58;;;17.10;58.70;;;;;;5006563;28;20031;-83
2022/10/15 05:14:06;;;;;;;90.10;37.65;;;17.10;58.90;;;;;;4991689;28;20026;-81
2022/10/15 05:16:32;;;;;;;112.55;42.30;;;17.00;59.20;;;;;;4994086;28;20397;-82
2022/10/15 05:19:03;;;;;;;113.40;40.63;;;17.00;59.50;;;;;;4995137;28;20022;-82
2022/10/15 05:21:29;;;;;;;97.70;40.88;;;17.00;59.00;;;;;;4995989;28;20401;-82
2022/10/15 05:23:56;;;;;;;72.28;33.13;;;16.90;59.60;;;;;;4995104;28;20620;-80
2022/10/15 05:26:23;;;;;;;66.05;31.88;;;16.80;59.30;;;;;;4995786;28;20037;-84
2022/10/15 05:28:50;;;;;;;59.17;30.42;;;16.90;59.20;;;;;;4995917;28;20381;-82
2022/10/15 05:31:21;;;;;;;58.33;29.58;;;16.80;59.30;;;;;;4994713;28;20034;-83
2022/10/15 05:33:48;;;;;;;48.17;26.70;;;16.90;59.30;;;;;;4995973;28;20034;-83
2022/10/15 05:36:40;;;;;;;58.70;30.98;;;16.90;59.40;;;;;;4995631;28;20037;-83
2022/10/15 05:39:09;;;;;;;54.08;30.40;;;16.80;60.00;;;;;;4991221;28;20034;-83
2022/10/15 05:41:35;;;;;;;52.22;28.83;;;16.70;60.00;;;;;;4996011;28;20026;-83
2022/10/15 05:44:01;;;;;;;52.90;29.75;;;16.70;60.00;;;;;;4994788;28;20022;-83
2022/10/15 05:46:27;;;;;;;55.00;29.95;;;16.70;60.30;;;;;;4995315;28;20388;-83
2022/10/15 05:48:55;;;;;;;50.30;28.00;;;16.80;60.30;;;;;;4977625;28;20054;-81
2022/10/15 05:51:22;;;;;;;50.90;27.40;;;16.90;60.30;;;;;;4995391;28;20394;-83
2022/10/15 05:53:54;;;;;;;40.35;24.25;;;17.10;60.00;;;;;;4995555;28;20022;-86
2022/10/15 05:56:20;;;;;;;44.80;27.83;;;17.10;59.80;;;;;;4994798;28;20030;-84
2022/10/15 05:58:46;;;;;;;43.03;26.08;;;16.90;61.70;;;;;;4994598;28;20433;-84
2022/10/15 06:01:12;;;;;;;53.65;29.20;;;16.80;61.60;;;;;;4994682;28;20038;-84
2022/10/15 06:03:40;;;;;;;54.22;28.20;;;16.80;62.40;;;;;;4994230;28;20034;-83
2022/10/15 06:06:14;;;;;;;48.88;28.58;;;16.90;62.20;;;;;;4995500;28;20023;-84
2022/10/15 06:08:39;;;;;;;49.42;27.00;;;17.30;61.60;;;;;;4994332;28;20081;-83
2022/10/15 06:11:08;;;;;;;56.30;29.05;;;17.60;61.30;;;;;;4995293;28;20031;-84
2022/10/15 06:13:34;;;;;;;47.47;27.88;;;17.80;61.00;;;;;;4995095;28;20425;-84
2022/10/15 06:16:02;;;;;;;42.00;25.67;;;17.70;61.40;;;;;;4994114;28;20071;-85
2022/10/15 06:18:28;;;;;;;45.53;26.95;;;16.90;63.40;;;;;;4994565;28;20409;-83
2022/10/15 06:20:54;;;;;;;47.22;27.67;;;16.70;64.70;;;;;;4993968;28;20473;-84
2022/10/15 06:23:20;;;;;;;49.35;28.42;;;17.00;63.60;;;;;;4993667;28;20030;-84
2022/10/15 06:25:46;;;;;;;51.53;30.88;;;17.40;62.90;;;;;;4994034;28;20033;-83
2022/10/15 06:28:12;;;;;;;48.17;28.73;;;17.80;62.10;;;;;;4995417;28;20022;-84
2022/10/15 06:30:37;;;;;;;47.97;29.25;;;18.10;61.30;;;;;;4994194;28;20026;-85
2022/10/15 06:33:03;;;;;;;43.75;27.33;;;18.20;61.50;;;;;;4994914;28;20089;-84
2022/10/15 06:35:29;;;;;;;46.40;28.08;;;18.20;61.70;;;;;;4993732;28;20038;-85
2022/10/15 06:37:55;;;;;;;44.35;27.08;;;18.30;62.00;;;;;;4978057;28;20085;-84
2022/10/15 06:40:21;;;;;;;55.22;31.10;;;18.30;62.20;;;;;;4993492;28;20126;-83
2022/10/15 06:42:46;;;;;;;57.78;30.98;;;18.50;61.70;;;;;;4995098;28;20038;-86
2022/10/15 06:45:12;;;;;;;49.78;28.95;;;18.60;61.70;;;;;;4993638;28;20045;-84
2022/10/15 06:47:41;;;;;;;46.33;28.83;;;18.70;61.30;;;;;;4977927;28;20089;-85
2022/10/15 06:50:08;;;;;;;48.28;30.42;;;17.90;63.60;;;;;;4993962;28;20026;-85
2022/10/15 06:52:33;;;;;;;48.00;29.40;;;17.50;65.20;;;;;;4994721;28;20022;-84
2022/10/15 06:54:59;;;;;;;56.08;31.10;;;17.80;64.70;;;;;;4994302;28;20049;-85
2022/10/15 06:57:27;;;;;;;56.28;31.70;;;18.20;64.30;;;;;;4993307;28;20481;-82
2022/10/15 06:59:52;;;;;;;51.60;30.23;;;18.70;63.40;;;;;;4994417;28;20030;-81
2022/10/15 07:02:23;;;;;;;57.20;33.40;;;19.10;63.10;;;;;;4994658;28;20397;-82
2022/10/15 07:04:49;;;;;;;53.50;31.58;;;19.40;62.50;;;;;;4995004;28;20373;-81
2022/10/15 07:07:14;;;;;;;48.13;29.48;;;19.60;62.10;;;;;;4993694;28;20033;-82
2022/10/15 07:09:40;;;;;;;48.35;29.65;;;19.60;62.00;;;;;;4994607;28;20026;-80
2022/10/15 07:12:06;;;;;;;51.90;30.98;;;19.80;61.70;;;;;;4993444;28;20125;-82
2022/10/15 07:14:31;;;;;;;49.95;31.10;;;19.90;61.80;;;;;;4993442;28;20156;-85
2022/10/15 07:16:58;;;;;;;45.42;28.52;;;20.00;61.90;;;;;;4976905;28;20097;-84
2022/10/15 07:19:24;;;;;;;55.67;31.83;;;19.80;61.80;;;;;;4976907;28;20026;-82
2022/10/15 07:21:50;;;;;;;44.92;28.70;;;19.80;62.00;;;;;;4977084;28;20385;-82
2022/10/15 07:24:16;;;;;;;43.50;28.58;;;20.00;61.90;;;;;;4994513;28;20496;-83
2022/10/15 07:26:41;;;;;;;41.05;26.15;;;19.80;62.00;;;;;;4977545;28;20493;-87
2022/10/15 07:29:07;;;;;;;39.17;26.58;;;19.20;63.20;;;;;;4977229;28;20088;-91
2022/10/15 07:31:34;;;;;;;41.97;26.95;;;19.20;63.90;;;;;;4993367;28;20121;-85
2022/10/15 07:33:59;;;;;;;43.08;26.80;;;19.00;64.30;;;;;;4994464;28;20037;-83
2022/10/15 07:36:25;;;;;;;47.33;29.52;;;19.30;63.70;;;;;;4977446;28;20031;-84
2022/10/15 07:38:53;;;;;;;43.55;26.77;;;19.30;64.50;;;;;;4994534;28;20408;-87
2022/10/15 07:41:19;;;;;;;38.95;24.83;;;19.30;64.40;;;;;;4993626;28;20030;-86
2022/10/15 07:43:44;;;;;;;38.30;25.75;;;19.40;64.10;;;;;;4993503;28;20141;-90
2022/10/15 07:46:12;;;;;;;38.95;25.88;;;18.80;64.90;;;;;;4977209;28;20394;-88
2022/10/15 07:48:38;;;;;;;35.38;24.52;;;18.90;65.00;;;;;;4994864;28;20058;-84
2022/10/15 07:51:06;;;;;;;42.83;26.23;;;19.20;64.60;;;;;;4993246;28;20120;-82
2022/10/15 07:53:32;;;;;;;39.60;25.65;;;19.50;64.10;;;;;;4993441;28;20053;-86
2022/10/15 07:55:59;;;;;;;40.25;26.55;;;20.00;63.30;;;;;;4993243;28;20525;-86
2022/10/15 07:58:24;;;;;;;38.38;26.25;;;20.40;62.90;;;;;;4993361;28;20384;-86
2022/10/15 08:00:50;;;;;;;39.35;25.63;;;20.60;63.00;;;;;;4993377;28;20470;-88
2022/10/15 08:03:16;;;;;;;41.50;26.65;;;20.90;62.80;;;;;;4993590;28;20050;-87
2022/10/15 08:05:41;;;;;;;40.35;26.17;;;21.10;62.20;;;;;;4977287;28;20116;-90
2022/10/15 08:08:08;;;;;;;37.42;24.27;;;21.30;61.70;;;;;;4978137;28;20512;-91
2022/10/15 08:10:35;;;;;;;33.67;23.02;;;21.30;61.50;;;;;;4994638;28;20027;-88
2022/10/15 08:13:00;;;;;;;33.17;23.13;;;21.40;61.40;;;;;;4994280;28;20038;-86
2022/10/15 08:15:26;;;;;;;33.67;22.60;;;20.90;61.40;;;;;;4993132;28;20465;-91
2022/10/15 08:17:54;;;;;;;35.15;22.95;;;20.50;62.40;;;;;;4993911;28;20046;-90
2022/10/15 08:20:20;;;;;;;31.88;22.70;;;20.20;63.00;;;;;;4977019;28;20030;-90
2022/10/15 08:22:45;;;;;;;33.47;22.45;;;20.60;63.20;;;;;;4994248;28;20030;-86
2022/10/15 08:25:11;;;;;;;34.10;21.23;;;20.80;62.30;;;;;;4993247;28;20528;-90
2022/10/15 08:27:37;;;;;;;31.05;22.13;;;20.40;63.20;;;;;;4993388;28;20056;-89
2022/10/15 08:30:03;;;;;;;32.35;21.15;;;20.40;63.20;;;;;;4993347;28;20022;-87
2022/10/15 08:32:29;;;;;;;31.50;20.75;;;20.30;63.20;;;;;;4998332;28;20473;-83
2022/10/15 08:34:54;;;;;;;31.05;20.98;;;20.20;63.00;;;;;;4997230;28;20030;-87
2022/10/15 08:37:20;;;;;;;41.17;20.25;;;20.00;63.90;;;;;;4997124;28;20133;-83
2022/10/15 08:39:46;;;;;;;33.00;20.08;;;19.60;64.60;;;;;;4996798;28;20023;-86
2022/10/15 08:42:28;;;;;;;30.60;20.65;;;19.80;64.30;;;;;;4997544;28;20560;-82
2022/10/15 08:45:01;;;;;;;32.70;19.70;;;19.90;64.40;;;;;;4997251;28;20085;-90
2022/10/15 08:48:20;;;;;;;33.63;19.75;;;19.80;64.20;;;;;;4998107;28;20025;-93
2022/10/15 08:51:10;;;;;;;26.30;18.77;;;19.70;64.00;;;;;;4919278;29;20087;-81
2022/10/15 08:53:44;;;;;;;;;;;19.70;64.10;;;;;;4919061;29;20033;-85
2022/10/15 08:56:25;;;;;;;32.28;18.63;;;19.70;64.40;;;;;;4919470;29;20330;-89
2022/10/15 08:59:40;;;;;;;28.98;18.50;;;19.90;64.20;;;;;;4918815;29;20153;-85
2022/10/15 09:02:34;;;;;;;27.42;17.42;;;20.40;62.90;;;;;;4862443;29;20037;-87
2022/10/15 09:05:21;;;;;;;22.90;16.33;;;20.70;62.60;;;;;;4847462;29;20045;-86
2022/10/15 09:07:57;;;;;;;27.55;17.00;;;20.80;61.70;;;;;;4862661;29;20485;-85
2022/10/15 09:10:52;;;;;;;25.63;17.38;;;20.70;62.00;;;;;;4863871;29;20460;-89
2022/10/15 09:13:32;;;;;;;25.75;17.27;;;21.00;61.80;;;;;;4863096;29;20379;-92
2022/10/15 09:16:09;;;;;;;;;;;21.60;60.40;;;;;;4863076;29;20539;-88
2022/10/15 09:18:37;;;;;;;24.80;16.08;;;21.90;60.30;;;;;;4862589;29;20025;-87
2022/10/15 09:21:04;;;;;;;25.83;17.15;;;22.20;59.70;;;;;;4862434;29;20054;-82
2022/10/15 09:23:33;;;;;;;26.00;16.67;;;22.20;59.80;;;;;;4862447;29;20379;-85
2022/10/15 09:26:11;;;;;;;24.98;17.52;;;22.10;58.50;;;;;;4882079;29;20032;-84
2022/10/15 09:29:09;;;;;;;25.90;16.75;;;21.70;60.10;;;;;;4918699;29;20503;-91
2022/10/15 09:31:46;;;;;;;25.50;16.20;;;21.80;59.30;;;;;;4918272;29;20072;-87
2022/10/15 09:34:35;;;;;;;23.77;14.80;;;21.50;60.60;;;;;;4917972;29;20025;-92
2022/10/15 09:37:16;;;;;;;23.98;15.60;;;21.80;60.00;;;;;;4945332;28;20035;-87
2022/10/15 09:39:54;;;;;;;23.60;15.77;;;22.00;59.30;;;;;;4996182;28;20100;-83
2022/10/15 09:42:33;;;;;;;21.00;14.63;;;21.80;59.20;;;;;;4979047;28;20482;-87
2022/10/15 09:45:03;;;;;;;22.63;13.73;;;22.00;59.50;;;;;;4996537;28;20473;-87
2022/10/15 09:47:33;;;;;;;23.40;14.32;;;22.50;58.50;;;;;;4995388;28;20026;-86
2022/10/15 09:49:58;;;;;;;21.52;15.07;;;22.90;58.60;;;;;;4996233;28;20018;-89
2022/10/15 09:52:27;;;;;;;22.50;14.68;;;23.10;57.90;;;;;;4995280;28;20032;-90
2022/10/15 09:55:26;;;;;;;25.02;13.73;;;23.60;57.20;;;;;;4979395;28;20520;-85
2022/10/15 09:57:55;;;;;;;18.27;13.50;;;23.80;55.40;;;;;;4995717;28;20022;-92
2022/10/15 10:00:21;;;;;;;20.02;12.88;;;23.70;56.00;;;;;;4995612;28;20059;-89
2022/10/15 10:03:14;;;;;;;21.48;12.73;;;23.80;55.10;;;;;;4997748;28;20088;-92
2022/10/15 10:05:39;;;;;;;20.30;12.88;;;23.80;54.80;;;;;;4991974;28;20097;-83
2022/10/15 10:08:20;;;;;;;20.02;12.27;;;23.40;55.80;;;;;;4995868;28;20030;-84
2022/10/15 10:11:03;;;;;;;21.20;12.90;;;23.10;56.60;;;;;;4995614;28;20035;-88
2022/10/15 10:13:47;;;;;;;17.67;12.05;;;23.30;56.40;;;;;;4995136;28;20022;-92
2022/10/15 10:16:15;;;;;;;18.52;11.70;;;23.00;55.70;;;;;;4978722;28;20037;-88
2022/10/15 10:19:04;;;;;;;16.88;11.52;;;23.20;56.40;;;;;;4994909;28;20032;-96
2022/10/15 10:21:38;;;;;;;18.67;11.98;;;23.20;56.00;;;;;;4979533;28;20038;-88
2022/10/15 10:24:27;;;;;;;20.50;11.63;;;22.90;56.90;;;;;;4995377;28;20083;-81
2022/10/15 10:26:53;;;;;;;16.23;11.32;;;23.30;56.20;;;;;;4978486;28;20053;-88
2022/10/15 10:29:21;;;;;;;15.65;10.70;;;23.60;56.00;;;;;;4995585;28;20054;-81
2022/10/15 10:31:56;;;;;;;14.55;10.18;;;23.90;54.80;;;;;;4995335;28;20026;-88
2022/10/15 10:34:30;;;;;;;15.43;9.65;;;23.40;54.70;;;;;;4979184;28;20030;-90
2022/10/15 10:36:56;;;;;;;12.07;9.32;;;23.50;55.10;;;;;;4994504;28;20023;-88
2022/10/15 10:39:31;;;;;;;15.65;8.75;;;23.50;54.90;;;;;;4994815;28;20045;-90
2022/10/15 10:41:57;;;;;;;20.77;8.98;;;23.30;54.30;;;;;;4994997;28;20077;-85
2022/10/15 10:44:28;;;;;;;15.88;8.43;;;23.40;53.60;;;;;;4978105;28;20064;-91
2022/10/15 10:47:15;;;;;;;13.60;8.80;;;23.50;54.10;;;;;;4979016;28;20494;-90
2022/10/15 10:49:48;;;;;;;13.85;8.82;;;23.10;54.80;;;;;;4994512;28;20038;-86
2022/10/15 10:52:21;;;;;;;13.32;9.00;;;23.00;54.60;;;;;;4978436;28;20026;-82
2022/10/15 10:54:54;;;;;;;12.10;8.35;;;23.00;54.90;;;;;;4994446;28;20034;-89
2022/10/15 10:57:25;;;;;;;13.75;9.20;;;23.20;55.60;;;;;;4994159;28;20033;-88
2022/10/15 10:59:54;;;;;;;19.70;9.48;;;23.70;55.20;;;;;;4994723;28;20358;-87
2022/10/15 11:02:19;;;;;;;12.05;8.13;;;24.00;53.90;;;;;;4994044;28;20057;-87
2022/10/15 11:04:46;;;;;;;14.73;9.00;;;24.00;53.20;;;;;;4978489;28;20072;-86
2022/10/15 11:07:11;;;;;;;13.52;8.20;;;24.00;53.80;;;;;;4994070;28;20421;-88
2022/10/15 11:09:59;;;;;;;13.45;8.57;;;24.20;53.90;;;;;;4978169;28;20461;-86
2022/10/15 11:12:56;;;;;;;15.57;7.80;;;24.30;52.70;;;;;;4977907;28;20069;-87
2022/10/15 11:15:41;;;;;;;15.32;8.60;;;23.60;53.20;;;;;;4977521;28;20117;-86
2022/10/15 11:18:47;;;;;;;13.50;7.75;;;23.80;53.50;;;;;;4977787;28;20050;-94
2022/10/15 11:21:44;;;;;;;11.38;8.20;;;23.20;53.70;;;;;;4994249;28;20044;-91
2022/10/15 11:24:21;;;;;;;12.43;7.40;;;23.00;54.40;;;;;;4978678;28;20053;-85
2022/10/15 11:27:11;;;;;;;12.13;7.60;;;23.20;54.50;;;;;;4994947;28;20109;-90
2022/10/15 11:29:55;;;;;;;10.17;7.03;;;23.30;54.20;;;;;;4977981;28;20026;-87
2022/10/15 11:32:35;;;;;;;14.63;8.52;;;23.60;53.90;;;;;;4977855;28;20285;-86
2022/10/15 11:35:06;;;;;;;15.07;9.30;;;24.20;53.30;;;;;;4977296;28;20437;-88
2022/10/15 11:37:54;;;;;;;12.65;9.00;;;23.80;53.80;;;;;;4978083;28;20095;-89
2022/10/15 11:40:44;;;;;;;14.18;8.35;;;23.20;54.60;;;;;;4977726;28;20034;-87
2022/10/15 11:43:12;;;;;;;11.75;8.38;;;22.70;56.00;;;;;;4993451;28;20031;-93
2022/10/15 11:45:38;;;;;;;13.43;8.63;;;23.10;55.60;;;;;;4977212;28;20041;-93
2022/10/15 11:48:25;;;;;;;11.00;8.38;;;23.10;55.80;;;;;;4977227;28;20026;-86
2022/10/15 11:51:09;;;;;;;11.45;8.13;;;23.70;55.20;;;;;;4978229;28;20053;-91
2022/10/15 11:54:03;;;;;;;12.68;7.93;;;24.10;54.00;;;;;;4978551;28;20381;-89
2022/10/15 11:56:51;;;;;;;11.20;7.72;;;24.60;53.80;;;;;;4977383;28;20374;-84
2022/10/15 11:59:16;;;;;;;13.65;8.23;;;24.10;53.70;;;;;;4993255;28;20026;-86
2022/10/15 12:02:00;;;;;;;11.57;8.60;;;23.90;54.60;;;;;;4977841;28;20039;-86
2022/10/15 12:04:39;;;;;;;13.63;7.65;;;23.80;54.20;;;;;;4994222;28;20030;-85
2022/10/15 12:07:11;;;;;;;13.65;7.13;;;23.60;54.30;;;;;;4981626;28;20038;-87
2022/10/15 12:09:42;;;;;;;11.90;8.13;;;23.30;54.60;;;;;;4997366;28;20048;-89
2022/10/15 12:12:25;;;;;;;15.05;7.82;;;23.40;54.80;;;;;;4997580;28;20030;-85
2022/10/15 12:14:57;;;;;;;15.60;8.30;;;23.30;54.60;;;;;;4997453;28;20035;-89
2022/10/15 12:17:40;;;;;;;12.10;8.40;;;23.30;54.50;;;;;;4980773;28;20046;-88
2022/10/15 12:20:18;;;;;;;13.85;8.18;;;23.50;54.50;;;;;;4980897;28;20030;-84
2022/10/15 12:22:47;;;;;;;14.30;7.60;;;23.80;54.30;;;;;;4997631;28;20042;-90
2022/10/15 12:25:34;;;;;;;11.75;7.32;;;24.00;53.50;;;;;;4981583;28;20045;-85
2022/10/15 12:28:07;;;;;;;9.45;7.32;;;23.90;53.70;;;;;;4981544;28;20030;-89
2022/10/15 12:30:36;;;;;;;16.30;7.85;;;24.10;53.00;;;;;;4998223;28;20165;-86
2022/10/15 12:33:20;;;;;;;17.88;7.00;;;24.00;53.70;;;;;;4997305;28;20116;-89
2022/10/15 12:35:53;;;;;;;13.65;8.02;;;24.10;53.50;;;;;;4980683;28;20026;-91
2022/10/15 12:38:55;;;;;;;17.45;9.35;;;24.40;53.20;;;;;;4996535;28;20026;-88
2022/10/15 12:41:32;;;;;;;15.38;9.70;;;24.60;53.50;;;;;;4996615;28;20038;-88
2022/10/15 12:44:14;;;;;;;15.65;9.27;;;24.10;53.60;;;;;;4997094;28;20022;-90
2022/10/15 12:46:40;;;;;;;12.50;8.00;;;23.80;53.90;;;;;;4996804;28;20037;-83
2022/10/15 12:49:29;;;;;;;19.27;11.45;;;23.90;53.40;;;;;;4996038;28;20034;-88
2022/10/15 12:52:00;;;;;;;17.15;11.63;;;24.30;52.80;;;;;;4980398;28;20027;-89
2022/10/15 12:54:31;;;;;;;;;;;24.00;53.30;;;;;;4996953;28;20026;-93